createdAt,value
2022-10-18T00:02:20.445Z,14.66
2022-10-18T00:04:47.195Z,14.66
2022-10-18T00:07:13.768Z,14.65
2022-10-18T00:09:40.474Z,14.63
2022-10-18T00:12:06.999Z,14.64
2022-10-18T00:14:33.626Z,14.65
2022-10-18T00:17:00.176Z,14.60
2022-10-18T00:19:29.196Z,14.55
2022-10-18T00:21:56.347Z,14.54
2022-10-18T00:24:22.917Z,14.53
2022-10-18T00:26:49.479Z,14.49
2022-10-18T00:29:16.614Z,14.47
2022-10-18T00:31:43.910Z,14.46
2022-10-18T00:34:13.517Z,14.45
2022-10-18T00:36:40.686Z,14.44
2022-10-18T00:39:08.635Z,14.44
2022-10-18T00:41:38.124Z,14.45
2022-10-18T00:44:12.468Z,14.43
2022-10-18T00:46:41.206Z,14.43
2022-10-18T00:49:14.561Z,14.42
2022-10-18T00:52:06.900Z,14.41
2022-10-18T00:54:36.048Z,14.41
2022-10-18T00:57:03.389Z,14.37
2022-10-18T00:59:30.204Z,14.31
2022-10-18T01:01:57.181Z,14.26
2022-10-18T01:04:24.038Z,14.22
2022-10-18T01:07:01.978Z,14.18
2022-10-18T01:09:39.828Z,14.16
2022-10-18T01:12:24.949Z,14.16
2022-10-18T01:15:06.324Z,14.13
2022-10-18T01:17:33.084Z,14.09
2022-10-18T01:20:13.507Z,14.07
2022-10-18T01:22:45.944Z,14.04
2022-10-18T01:25:18.711Z,13.98
2022-10-18T01:27:54.392Z,13.94
2022-10-18T01:30:41.667Z,13.89
2022-10-18T01:33:27.337Z,13.84
2022-10-18T01:36:00.141Z,13.78
2022-10-18T01:38:31.541Z,13.74
2022-10-18T01:40:59.546Z,13.71
2022-10-18T01:43:29.169Z,13.71
2022-10-18T01:45:59.365Z,13.68
2022-10-18T01:48:26.138Z,13.65
2022-10-18T01:50:53.131Z,13.64
2022-10-18T01:53:33.177Z,13.62
2022-10-18T01:56:18.419Z,13.58
2022-10-18T01:59:00.959Z,13.56
2022-10-18T02:01:50.755Z,13.53
2022-10-18T02:04:28.985Z,13.51
2022-10-18T02:07:03.905Z,13.50
2022-10-18T02:09:42.122Z,13.46
2022-10-18T02:12:12.269Z,13.43
2022-10-18T02:14:41.000Z,13.41
2022-10-18T02:17:11.654Z,13.42
2022-10-18T02:19:43.360Z,13.44
2022-10-18T02:22:12.773Z,13.48
2022-10-18T02:24:44.143Z,13.51
2022-10-18T02:27:11.317Z,13.54
2022-10-18T02:29:39.593Z,13.56
2022-10-18T02:32:41.002Z,13.58
2022-10-18T02:35:13.635Z,13.61
2022-10-18T02:37:41.353Z,13.61
2022-10-18T02:40:09.848Z,13.61
2022-10-18T02:42:38.987Z,13.61
2022-10-18T02:45:06.990Z,13.58
2022-10-18T02:47:33.832Z,13.58
2022-10-18T02:50:00.596Z,13.57
2022-10-18T02:52:27.189Z,13.55
2022-10-18T02:54:53.777Z,13.53
2022-10-18T02:57:20.353Z,13.51
2022-10-18T02:59:46.965Z,13.49
2022-10-18T03:02:13.500Z,13.44
2022-10-18T03:04:40.065Z,13.42
2022-10-18T03:07:06.628Z,13.40
2022-10-18T03:09:33.263Z,13.37
2022-10-18T03:11:59.893Z,13.33
2022-10-18T03:14:26.503Z,13.28
2022-10-18T03:16:53.066Z,13.24
2022-10-18T03:19:19.716Z,13.22
2022-10-18T03:21:46.263Z,13.20
2022-10-18T03:24:12.826Z,13.17
2022-10-18T03:26:39.414Z,13.12
2022-10-18T03:29:06.113Z,13.07
2022-10-18T03:31:33.847Z,13.03
2022-10-18T03:34:00.554Z,12.99
2022-10-18T03:36:27.279Z,12.97
2022-10-18T03:38:53.981Z,12.96
2022-10-18T03:41:20.967Z,12.95
2022-10-18T03:43:47.800Z,12.92
2022-10-18T03:46:14.443Z,12.89
2022-10-18T03:48:41.050Z,12.89
2022-10-18T03:51:07.601Z,12.89
2022-10-18T03:53:34.157Z,12.91
2022-10-18T03:56:00.706Z,12.95
2022-10-18T03:58:27.347Z,12.97
2022-10-18T04:00:55.235Z,12.98
2022-10-18T04:03:23.507Z,13.00
2022-10-18T04:05:50.452Z,13.02
2022-10-18T04:08:17.745Z,13.03
2022-10-18T04:10:45.164Z,13.02
2022-10-18T04:13:12.104Z,13.02
2022-10-18T04:15:38.737Z,13.02
2022-10-18T04:18:05.311Z,13.01
2022-10-18T04:20:31.877Z,12.99
2022-10-18T04:22:58.551Z,12.96
2022-10-18T04:25:25.732Z,12.97
2022-10-18T04:27:52.324Z,12.98
2022-10-18T04:30:18.898Z,12.98
2022-10-18T04:32:45.515Z,12.96
2022-10-18T04:35:12.099Z,12.95
2022-10-18T04:37:38.726Z,12.93
2022-10-18T04:40:05.831Z,12.92
2022-10-18T04:42:32.445Z,12.91
2022-10-18T04:44:59.043Z,12.94
2022-10-18T04:47:25.674Z,12.98
2022-10-18T04:49:53.811Z,12.98
2022-10-18T04:52:20.412Z,12.97
2022-10-18T04:54:46.967Z,12.98
2022-10-18T04:57:13.549Z,13.00
2022-10-18T04:59:40.170Z,13.01
2022-10-18T05:02:06.884Z,12.99
2022-10-18T05:04:33.737Z,12.96
2022-10-18T05:07:00.398Z,12.96
2022-10-18T05:09:27.006Z,13.00
2022-10-18T05:11:53.575Z,13.03
2022-10-18T05:14:20.208Z,13.03
2022-10-18T05:16:46.758Z,12.99
2022-10-18T05:19:13.350Z,13.01
2022-10-18T05:21:39.920Z,13.02
2022-10-18T05:24:06.725Z,13.00
2022-10-18T05:26:33.244Z,12.99
2022-10-18T05:28:59.801Z,13.00
2022-10-18T05:31:26.457Z,13.00
2022-10-18T05:33:53.063Z,13.04
2022-10-18T05:36:19.624Z,13.09
2022-10-18T05:38:48.026Z,13.17
2022-10-18T05:41:14.647Z,13.28
2022-10-18T05:43:41.234Z,13.41
2022-10-18T05:46:13.566Z,13.56
2022-10-18T05:48:43.425Z,13.68
2022-10-18T05:51:11.047Z,13.78
2022-10-18T05:53:38.502Z,13.89
2022-10-18T05:56:07.570Z,14.02
2022-10-18T05:58:34.908Z,14.14
2022-10-18T06:01:03.286Z,14.25
2022-10-18T06:03:31.180Z,14.38
2022-10-18T06:06:06.246Z,14.53
2022-10-18T06:08:33.608Z,14.66
2022-10-18T06:11:00.827Z,14.79
2022-10-18T06:13:29.122Z,14.92
2022-10-18T06:15:57.985Z,15.06
2022-10-18T06:20:26.679Z,15.31
2022-10-18T06:22:53.736Z,15.44
2022-10-18T06:25:20.343Z,15.57
2022-10-18T06:27:46.939Z,15.69
2022-10-18T06:30:13.634Z,15.79
2022-10-18T06:32:40.218Z,15.89
2022-10-18T06:35:07.240Z,15.97
2022-10-18T06:37:35.697Z,16.05
2022-10-18T06:40:02.661Z,16.13
2022-10-18T06:42:29.232Z,16.21
2022-10-18T06:44:55.872Z,16.28
2022-10-18T06:47:22.510Z,16.37
2022-10-18T06:49:49.196Z,16.47
2022-10-18T06:52:20.866Z,16.55
2022-10-18T06:54:47.442Z,16.65
2022-10-18T06:57:14.096Z,16.77
2022-10-18T06:59:40.681Z,16.87
2022-10-18T07:02:07.455Z,16.93
2022-10-18T07:04:34.181Z,16.97
2022-10-18T07:07:00.756Z,17.05
2022-10-18T07:09:27.421Z,17.12
2022-10-18T07:11:54.211Z,17.21
2022-10-18T07:14:20.775Z,17.30
2022-10-18T07:16:47.382Z,17.39
2022-10-18T07:19:15.029Z,17.47
2022-10-18T07:21:41.721Z,17.55
2022-10-18T07:24:08.288Z,17.62
2022-10-18T07:26:35.520Z,17.67
2022-10-18T07:29:06.989Z,17.74
2022-10-18T07:31:34.103Z,17.81
2022-10-18T07:34:01.117Z,17.89
2022-10-18T07:36:27.727Z,17.95
2022-10-18T07:38:54.949Z,18.02
2022-10-18T07:41:22.122Z,18.11
2022-10-18T07:43:53.690Z,18.18
2022-10-18T07:46:21.903Z,18.27
2022-10-18T07:48:48.613Z,18.33
2022-10-18T07:51:15.324Z,18.39
2022-10-18T07:53:42.416Z,18.47
2022-10-18T07:56:16.337Z,18.52
2022-10-18T07:58:44.294Z,18.56
2022-10-18T08:01:11.488Z,18.62
2022-10-18T08:03:38.954Z,18.68
2022-10-18T08:06:09.182Z,18.73
2022-10-18T08:08:37.268Z,18.80
2022-10-18T08:11:06.125Z,18.81
2022-10-18T08:13:33.461Z,18.82
2022-10-18T08:16:09.059Z,18.86
2022-10-18T08:18:37.054Z,18.90
2022-10-18T08:21:06.088Z,18.97
2022-10-18T08:23:33.297Z,19.01
2022-10-18T08:26:05.818Z,19.00
2022-10-18T08:28:33.285Z,19.03
2022-10-18T08:31:05.699Z,19.09
2022-10-18T08:33:33.112Z,19.13
2022-10-18T08:36:02.119Z,19.18
2022-10-18T08:38:33.588Z,19.18
2022-10-18T08:41:17.022Z,19.18
2022-10-18T08:44:07.273Z,19.17
2022-10-18T08:46:37.603Z,19.16
2022-10-18T08:49:05.891Z,19.17
2022-10-18T08:51:42.717Z,19.17
2022-10-18T08:54:15.159Z,19.17
2022-10-18T08:56:55.024Z,19.22
2022-10-18T08:59:24.735Z,19.23
2022-10-18T09:02:31.462Z,19.26
2022-10-18T09:05:09.450Z,19.32
2022-10-18T09:07:45.384Z,19.39
2022-10-18T09:10:40.517Z,19.45
2022-10-18T09:13:07.130Z,19.54
2022-10-18T09:15:49.859Z,19.64
2022-10-18T09:18:42.919Z,19.62
2022-10-18T09:21:26.001Z,19.55
2022-10-18T09:24:25.971Z,19.61
2022-10-18T09:27:04.841Z,19.68
2022-10-18T09:29:59.875Z,19.79
2022-10-18T09:33:05.443Z,19.87
2022-10-18T09:36:25.133Z,19.86
2022-10-18T09:38:58.539Z,19.64
2022-10-18T09:41:34.589Z,19.55
2022-10-18T09:44:25.963Z,19.45
2022-10-18T09:47:00.636Z,19.27
2022-10-18T09:49:31.934Z,19.25
2022-10-18T09:52:03.802Z,19.13
2022-10-18T09:54:36.149Z,19.05
2022-10-18T09:57:21.224Z,19.10
2022-10-18T09:59:50.748Z,19.11
2022-10-18T10:02:23.188Z,19.03
2022-10-18T10:04:51.114Z,18.99
2022-10-18T10:07:34.917Z,19.05
2022-10-18T10:10:27.130Z,19.03
2022-10-18T10:13:16.299Z,19.05
2022-10-18T10:15:53.587Z,19.04
2022-10-18T10:18:31.069Z,19.00
2022-10-18T10:21:01.004Z,18.93
2022-10-18T10:23:33.997Z,18.90
2022-10-18T10:26:34.145Z,18.85
2022-10-18T10:29:01.122Z,18.95
2022-10-18T10:31:29.933Z,19.02
2022-10-18T10:34:04.208Z,19.01
2022-10-18T10:36:32.870Z,19.01
2022-10-18T10:39:10.155Z,19.05
2022-10-18T10:41:39.761Z,19.08
2022-10-18T10:44:19.153Z,19.10
2022-10-18T10:46:48.336Z,19.17
2022-10-18T10:49:39.229Z,19.20
2022-10-18T10:52:15.434Z,19.21
2022-10-18T10:54:53.879Z,19.26
2022-10-18T10:57:28.133Z,19.28
2022-10-18T10:59:58.616Z,19.24
2022-10-18T11:02:37.551Z,19.28
2022-10-18T11:05:30.621Z,19.39
2022-10-18T11:08:03.812Z,19.41
2022-10-18T11:10:35.051Z,19.50
2022-10-18T11:13:29.157Z,19.50
2022-10-18T11:16:00.970Z,19.63
2022-10-18T11:18:32.589Z,19.63
2022-10-18T11:21:08.275Z,19.66
2022-10-18T11:23:37.414Z,19.73
2022-10-18T11:26:13.101Z,19.81
2022-10-18T11:29:03.990Z,19.91
2022-10-18T11:31:56.493Z,20.03
2022-10-18T11:34:36.551Z,20.07
2022-10-18T11:37:32.143Z,20.13
2022-10-18T11:40:49.932Z,20.23
2022-10-18T11:44:02.169Z,20.29
2022-10-18T11:46:54.656Z,20.37
2022-10-18T11:50:17.305Z,20.42
2022-10-18T11:52:56.544Z,20.45
2022-10-18T11:55:33.179Z,20.48
2022-10-18T11:58:38.225Z,20.47
2022-10-18T12:01:39.303Z,20.51
2022-10-18T12:04:19.807Z,20.55
2022-10-18T12:06:53.433Z,20.63
2022-10-18T12:09:39.250Z,20.69
2022-10-18T12:12:26.366Z,20.71
2022-10-18T12:14:57.628Z,20.71
2022-10-18T12:17:48.939Z,20.72
2022-10-18T12:20:26.228Z,20.75
2022-10-18T12:23:05.070Z,20.81
2022-10-18T12:25:38.989Z,20.86
2022-10-18T12:28:21.201Z,20.86
2022-10-18T12:31:07.969Z,20.88
2022-10-18T12:33:42.416Z,20.87
2022-10-18T12:36:19.092Z,20.91
2022-10-18T12:38:50.093Z,20.96
2022-10-18T12:41:24.344Z,20.98
2022-10-18T12:43:59.099Z,20.99
2022-10-18T12:46:44.293Z,21.03
2022-10-18T12:49:13.773Z,21.08
2022-10-18T12:51:55.798Z,21.12
2022-10-18T12:54:28.262Z,21.15
2022-10-18T12:56:55.556Z,21.14
2022-10-18T12:59:26.429Z,21.12
2022-10-18T13:01:53.115Z,21.13
2022-10-18T13:04:28.981Z,21.14
2022-10-18T13:07:03.205Z,21.12
2022-10-18T13:09:35.721Z,21.15
2022-10-18T13:12:11.125Z,21.16
2022-10-18T13:15:20.630Z,21.18
2022-10-18T13:17:56.495Z,21.22
2022-10-18T13:20:28.051Z,21.20
2022-10-18T13:23:13.663Z,21.21
2022-10-18T13:25:46.393Z,21.25
2022-10-18T13:28:34.453Z,21.28
2022-10-18T13:31:14.800Z,21.28
2022-10-18T13:33:42.585Z,21.26
2022-10-18T13:36:22.754Z,21.27
2022-10-18T13:38:57.856Z,21.26
2022-10-18T13:41:34.281Z,21.25
2022-10-18T13:44:02.236Z,21.25
2022-10-18T13:46:38.397Z,21.27
2022-10-18T13:49:18.104Z,21.26
2022-10-18T13:52:12.971Z,21.21
2022-10-18T13:54:58.717Z,21.09
2022-10-18T13:57:40.984Z,21.06
2022-10-18T14:00:29.938Z,21.04
2022-10-18T14:03:44.068Z,20.99
2022-10-18T14:06:15.682Z,21.03
2022-10-18T14:08:49.354Z,21.03
2022-10-18T14:11:44.144Z,20.93
2022-10-18T14:14:36.873Z,20.84
2022-10-18T14:17:52.082Z,20.83
2022-10-18T14:20:23.014Z,20.84
2022-10-18T14:23:01.718Z,20.76
2022-10-18T14:25:31.794Z,20.65
2022-10-18T14:28:27.432Z,20.56
2022-10-18T14:31:11.902Z,20.40
2022-10-18T14:33:58.114Z,20.29
2022-10-18T14:36:34.488Z,20.19
2022-10-18T14:39:04.514Z,20.09
2022-10-18T14:41:47.483Z,20.02
2022-10-18T14:44:21.258Z,19.96
2022-10-18T14:47:14.842Z,19.86
2022-10-18T14:49:45.380Z,19.70
2022-10-18T14:52:26.466Z,19.53
2022-10-18T14:54:56.241Z,19.36
2022-10-18T14:57:35.824Z,19.21
2022-10-18T15:00:08.357Z,19.02
2022-10-18T15:02:38.419Z,18.87
2022-10-18T15:05:16.539Z,18.73
2022-10-18T15:07:44.329Z,18.60
2022-10-18T15:10:18.023Z,18.48
2022-10-18T15:13:08.355Z,18.34
2022-10-18T15:15:34.959Z,18.18
2022-10-18T15:18:02.331Z,18.03
2022-10-18T15:20:31.955Z,17.89
2022-10-18T15:23:26.162Z,17.73
2022-10-18T15:26:02.280Z,17.55
2022-10-18T15:28:37.631Z,17.39
2022-10-18T15:31:05.084Z,17.24
2022-10-18T15:33:36.107Z,17.08
2022-10-18T15:36:11.285Z,16.91
2022-10-18T15:38:39.044Z,16.75
2022-10-18T15:41:37.249Z,16.60
2022-10-18T15:44:28.501Z,16.44
2022-10-18T15:47:09.154Z,16.29
2022-10-18T15:49:44.821Z,16.20
2022-10-18T15:52:33.830Z,16.15
2022-10-18T15:55:31.668Z,16.17
2022-10-18T15:58:18.985Z,16.22
2022-10-18T16:00:47.303Z,16.22
2022-10-18T16:03:15.474Z,16.17
2022-10-18T16:05:42.236Z,16.11
2022-10-18T16:08:29.029Z,16.02
2022-10-18T16:10:55.955Z,15.93
2022-10-18T16:13:22.622Z,15.88
2022-10-18T16:15:49.291Z,15.83
2022-10-18T16:18:18.923Z,15.80
2022-10-18T16:20:46.867Z,15.78
2022-10-18T16:23:16.557Z,15.76
2022-10-18T16:25:43.182Z,15.71
2022-10-18T16:28:14.201Z,15.67
2022-10-18T16:30:42.539Z,15.64
2022-10-18T16:33:09.115Z,15.60
2022-10-18T16:35:35.976Z,15.53
2022-10-18T16:38:02.757Z,15.42
2022-10-18T16:40:29.407Z,15.31
2022-10-18T16:42:56.242Z,15.21
2022-10-18T16:45:22.876Z,15.11
2022-10-18T16:47:49.484Z,15.02
2022-10-18T16:50:18.193Z,14.94
2022-10-18T16:52:45.135Z,14.90
2022-10-18T16:55:25.142Z,14.87
2022-10-18T16:57:52.259Z,14.82
2022-10-18T17:00:21.426Z,14.77
2022-10-18T17:02:49.681Z,14.70
2022-10-18T17:05:17.984Z,14.61
2022-10-18T17:07:47.108Z,14.54
2022-10-18T17:10:16.099Z,14.48
2022-10-18T17:12:42.862Z,14.42
2022-10-18T17:15:10.729Z,14.39
2022-10-18T17:17:38.245Z,14.40
2022-10-18T17:20:07.273Z,14.40
2022-10-18T17:22:34.050Z,14.41
2022-10-18T17:25:00.638Z,14.41
2022-10-18T17:27:27.444Z,14.46
2022-10-18T17:29:54.131Z,14.49
2022-10-18T17:32:20.941Z,14.48
2022-10-18T17:34:47.656Z,14.52
2022-10-18T17:37:14.343Z,14.58
2022-10-18T17:39:41.106Z,14.64
2022-10-18T17:42:07.852Z,14.72
2022-10-18T17:44:34.590Z,14.78
2022-10-18T17:47:01.995Z,14.81
2022-10-18T17:49:28.877Z,14.83
2022-10-18T17:51:55.711Z,14.86
2022-10-18T17:54:22.451Z,14.95
2022-10-18T17:56:52.347Z,15.01
2022-10-18T17:59:21.161Z,14.98
2022-10-18T18:04:17.016Z,15.00
2022-10-18T18:06:45.551Z,15.03
2022-10-18T18:09:16.728Z,15.06
2022-10-18T18:11:45.329Z,15.10
2022-10-18T18:14:11.973Z,15.11
2022-10-18T18:16:41.394Z,15.14
2022-10-18T18:19:10.072Z,15.20
2022-10-18T18:21:37.942Z,15.18
2022-10-18T18:24:05.162Z,15.18
2022-10-18T18:26:33.154Z,15.20
2022-10-18T18:29:00.427Z,15.22
2022-10-18T18:31:30.765Z,15.24
2022-10-18T18:34:01.200Z,15.24
2022-10-18T18:36:32.675Z,15.24
2022-10-18T18:38:59.527Z,15.25
2022-10-18T18:41:28.134Z,15.25
2022-10-18T18:43:58.183Z,15.26
2022-10-18T18:46:27.180Z,15.25
2022-10-18T18:48:54.088Z,15.21
2022-10-18T18:51:21.645Z,15.21
2022-10-18T18:53:49.076Z,15.22
2022-10-18T18:58:49.282Z,15.18
2022-10-18T19:01:18.869Z,15.15
2022-10-18T19:03:48.179Z,15.15
2022-10-18T19:06:18.207Z,15.16
2022-10-18T19:08:45.991Z,15.20
2022-10-18T19:11:16.847Z,15.22
2022-10-18T19:13:43.837Z,15.22
2022-10-18T19:16:24.174Z,15.23
2022-10-18T19:18:52.659Z,15.23
2022-10-18T19:21:19.816Z,15.21
2022-10-18T19:23:46.529Z,15.21
2022-10-18T19:26:21.767Z,15.15
2022-10-18T19:28:48.396Z,15.07
2022-10-18T19:31:14.986Z,15.02
2022-10-18T19:33:48.780Z,15.00
2022-10-18T19:36:25.395Z,14.99
2022-10-18T19:38:52.029Z,14.97
2022-10-18T19:41:18.678Z,14.93
2022-10-18T19:43:45.309Z,14.94
2022-10-18T19:46:11.861Z,14.95
2022-10-18T19:48:38.462Z,14.93
2022-10-18T19:51:08.972Z,14.88
2022-10-18T19:53:36.370Z,14.83
2022-10-18T19:56:04.761Z,14.82
2022-10-18T19:58:31.595Z,14.79
2022-10-18T20:00:58.491Z,14.74
2022-10-18T20:03:25.125Z,14.71
2022-10-18T20:05:56.619Z,14.67
2022-10-18T20:08:24.701Z,14.63
2022-10-18T20:10:51.737Z,14.55
2022-10-18T20:13:18.783Z,14.49
2022-10-18T20:15:49.580Z,14.44
2022-10-18T20:18:17.779Z,14.36
2022-10-18T20:20:47.348Z,14.26
2022-10-18T20:23:18.669Z,14.19
2022-10-18T20:25:58.970Z,14.11
2022-10-18T20:28:26.242Z,14.04
2022-10-18T20:31:01.019Z,13.99
2022-10-18T20:33:27.869Z,13.94
2022-10-18T20:35:54.718Z,13.89
2022-10-18T20:38:21.782Z,13.84
2022-10-18T20:40:48.355Z,13.77
2022-10-18T20:43:14.947Z,13.69
2022-10-18T20:45:41.505Z,13.66
2022-10-18T20:48:08.110Z,13.61
2022-10-18T20:50:34.679Z,13.58
2022-10-18T20:53:01.267Z,13.53
2022-10-18T20:55:29.274Z,13.53
2022-10-18T20:57:55.843Z,13.52
2022-10-18T21:00:22.450Z,13.53
2022-10-18T21:02:49.019Z,13.51
2022-10-18T21:05:16.668Z,13.52
2022-10-18T21:07:43.237Z,13.55
2022-10-18T21:10:09.854Z,13.50
2022-10-18T21:12:36.636Z,13.41
2022-10-18T21:15:03.911Z,13.41
2022-10-18T21:17:30.565Z,13.39
2022-10-18T21:19:57.181Z,13.36
2022-10-18T21:22:23.809Z,13.34
2022-10-18T21:24:50.956Z,13.33
2022-10-18T21:27:17.502Z,13.35
2022-10-18T21:29:44.079Z,13.35
2022-10-18T21:32:10.613Z,13.37
2022-10-18T21:34:37.222Z,13.42
2022-10-18T21:37:03.791Z,13.41
2022-10-18T21:39:30.373Z,13.36
2022-10-18T21:41:57.051Z,13.36
2022-10-18T21:44:23.628Z,13.35
2022-10-18T21:46:50.800Z,13.31
2022-10-18T21:49:17.450Z,13.25
2022-10-18T21:51:44.631Z,13.23
2022-10-18T21:54:13.363Z,13.20
2022-10-18T21:56:40.238Z,13.14
2022-10-18T21:59:06.975Z,13.14
2022-10-18T22:01:36.232Z,13.14
2022-10-18T22:04:06.977Z,13.08
2022-10-18T22:09:10.176Z,13.00
2022-10-18T22:11:41.405Z,12.96
2022-10-18T22:14:08.046Z,12.93
2022-10-18T22:16:34.783Z,12.93
2022-10-18T22:19:02.703Z,12.92
2022-10-18T22:21:29.919Z,12.90
2022-10-18T22:23:57.776Z,12.86
2022-10-18T22:26:33.566Z,12.82
2022-10-18T22:29:02.664Z,12.75
2022-10-18T22:31:32.567Z,12.71
2022-10-18T22:34:07.816Z,12.73
2022-10-18T22:36:35.673Z,12.73
2022-10-18T22:39:02.863Z,12.74
2022-10-18T22:41:30.131Z,12.71
2022-10-18T22:43:58.520Z,12.72
2022-10-18T22:46:27.999Z,12.69
2022-10-18T22:48:54.659Z,12.63
2022-10-18T22:51:21.354Z,12.58
2022-10-18T22:53:48.108Z,12.56
2022-10-18T22:58:14.322Z,12.48
2022-10-18T23:00:42.098Z,12.43
2022-10-18T23:03:09.840Z,12.39
2022-10-18T23:05:42.050Z,12.33
2022-10-18T23:08:11.997Z,12.32
2022-10-18T23:10:41.609Z,12.30
2022-10-18T23:13:10.855Z,12.29
2022-10-18T23:15:41.521Z,12.30
2022-10-18T23:18:09.125Z,12.27
2022-10-18T23:20:36.894Z,12.26
2022-10-18T23:23:04.614Z,12.26
2022-10-18T23:25:36.663Z,12.25
2022-10-18T23:28:06.014Z,12.23
2022-10-18T23:30:34.077Z,12.22
2022-10-18T23:33:01.860Z,12.24
2022-10-18T23:35:29.472Z,12.25
2022-10-18T23:37:57.163Z,12.22
2022-10-18T23:40:24.919Z,12.23
2022-10-18T23:42:52.655Z,12.26
2022-10-18T23:45:20.371Z,12.26
2022-10-18T23:47:48.104Z,12.30
2022-10-18T23:50:15.888Z,12.33
2022-10-18T23:52:43.659Z,12.38
2022-10-18T23:55:11.320Z,12.35
2022-10-18T23:57:39.058Z,12.30
